Time;durP1;ratioP1;P1;durP2;ratioP2;P2;SDS_P1;SDS_P2;PMS_P1;PMS_P2;Temp;Humidity;BMP_temperature;BMP_pressure;BME280_temperature;BME280_humidity;BME280_pressure;Samples;Min_cycle;Max_cycle;Signal;HPM_P1;HPM_P2
2022/12/30 00:01:21;;;;;;;0.60;0.60;;;;;5.80;95787.00;;;;5054139;28;20246;-58
2022/12/30 00:03:50;;;;;;;0.60;0.60;;;;;5.80;95787.00;;;;5054276;28;20195;-57
2022/12/30 00:06:20;;;;;;;1.50;1.27;;;;;5.80;95796.00;;;;5054056;28;20247;-57
2022/12/30 00:08:49;;;;;;;0.70;0.70;;;;;5.80;95783.00;;;;5053950;28;20255;-57
2022/12/30 00:11:19;;;;;;;2.30;0.80;;;;;6.00;95792.00;;;;5053937;28;20199;-57
2022/12/30 00:33:29;;;;;;;0.63;0.63;;;;;6.20;95811.00;;;;5053853;28;20202;-57
2022/12/30 00:35:59;;;;;;;0.60;0.60;;;;;6.20;95815.00;;;;5053671;28;20594;-57
2022/12/30 00:38:27;;;;;;;0.60;0.60;;;;;6.30;95814.00;;;;5053451;28;20196;-57
2022/12/30 00:43:39;;;;;;;0.60;0.60;;;;;6.20;95796.00;;;;5053651;28;20223;-58
2022/12/30 00:46:06;;;;;;;0.70;0.70;;;;;6.30;95802.00;;;;5035471;28;20199;-58
2022/12/30 00:56:50;;;;;;;0.60;0.60;;;;;5.90;95797.00;;;;5053396;28;20228;-56
2022/12/30 00:59:17;;;;;;;0.70;0.70;;;;;6.00;95805.00;;;;5053331;28;20214;-56
2022/12/30 01:01:45;;;;;;;0.60;0.60;;;;;6.00;95822.00;;;;5052978;28;20192;-56
2022/12/30 01:04:12;;;;;;;0.50;0.50;;;;;6.00;95824.00;;;;5052984;28;20277;-56
2022/12/30 01:06:41;;;;;;;0.60;0.60;;;;;6.00;95820.00;;;;5052945;28;20657;-58
2022/12/30 01:09:08;;;;;;;0.53;0.53;;;;;6.00;95832.00;;;;5052965;28;20202;-56
2022/12/30 01:11:36;;;;;;;0.60;0.60;;;;;6.00;95822.00;;;;5053525;28;20199;-57
2022/12/30 01:14:03;;;;;;;0.60;0.60;;;;;6.00;95830.00;;;;5052929;28;20296;-57
2022/12/30 01:16:31;;;;;;;0.60;0.60;;;;;6.00;95838.00;;;;5052850;28;20219;-57
2022/12/30 01:18:59;;;;;;;0.50;0.50;;;;;6.00;95841.00;;;;5052894;28;20196;-57
2022/12/30 01:21:26;;;;;;;0.60;0.60;;;;;6.00;95846.00;;;;5053432;28;20202;-57
2022/12/30 01:23:55;;;;;;;0.50;0.50;;;;;5.90;95841.00;;;;5052784;28;20759;-60
2022/12/30 01:26:22;;;;;;;0.60;0.60;;;;;5.90;95849.00;;;;5054207;28;20199;-57
2022/12/30 01:28:50;;;;;;;0.70;0.70;;;;;5.70;95849.00;;;;5056936;28;20253;-57
2022/12/30 01:31:18;;;;;;;1.00;1.00;;;;;5.80;95852.00;;;;5057194;28;20219;-57
2022/12/30 01:33:45;;;;;;;0.90;0.90;;;;;5.60;95851.00;;;;5057585;28;20275;-57
2022/12/30 01:36:13;;;;;;;0.60;0.60;;;;;5.50;95843.00;;;;5038799;28;20228;-57
2022/12/30 01:38:40;;;;;;;0.60;0.60;;;;;5.30;95851.00;;;;5056721;28;20198;-57
2022/12/30 01:41:09;;;;;;;0.60;0.60;;;;;5.30;95868.00;;;;5057517;28;20199;-57
2022/12/30 01:43:46;;;;;;;0.60;0.60;;;;;5.40;95868.00;;;;5056890;28;20260;-57
2022/12/30 01:46:20;;;;;;;0.60;0.60;;;;;5.30;95870.00;;;;5056921;28;20534;-57
2022/12/30 01:48:50;;;;;;;0.70;0.70;;;;;5.20;95870.00;;;;5056612;28;20245;-57
2022/12/30 01:51:20;;;;;;;0.67;0.67;;;;;5.10;95872.00;;;;5056571;28;20200;-57
2022/12/30 01:53:51;;;;;;;0.50;0.50;;;;;5.00;95878.00;;;;5056514;28;20177;-57
2022/12/30 01:56:24;;;;;;;0.80;0.80;;;;;5.00;95873.00;;;;5056409;28;20230;-57
2022/12/30 01:58:56;;;;;;;0.60;0.60;;;;;4.90;95874.00;;;;5056691;28;20615;-57
2022/12/30 02:01:24;;;;;;;0.80;0.80;;;;;4.80;95878.00;;;;5056669;28;20188;-57
2022/12/30 02:03:58;;;;;;;0.87;0.87;;;;;4.80;95870.00;;;;5038264;28;20204;-57
2022/12/30 02:06:31;;;;;;;0.77;0.77;;;;;4.70;95871.00;;;;5056858;28;20176;-57
2022/12/30 02:09:00;;;;;;;0.60;0.60;;;;;4.80;95863.00;;;;5056555;28;20238;-57
2022/12/30 02:11:30;;;;;;;0.70;0.70;;;;;4.80;95856.00;;;;5056195;28;20284;-57
2022/12/30 02:13:58;;;;;;;0.60;0.60;;;;;4.90;95862.00;;;;5056297;28;20219;-57
2022/12/30 02:16:44;;;;;;;0.60;0.60;;;;;5.10;95854.00;;;;5056075;28;20216;-57
2022/12/30 02:19:37;;;;;;;0.90;0.90;;;;;5.10;95855.00;;;;5056340;28;20190;-57
2022/12/30 02:22:10;;;;;;;1.90;1.00;;;;;5.30;95846.00;;;;5055999;28;20195;-57
2022/12/30 02:25:16;;;;;;;0.50;0.50;;;;;5.30;95856.00;;;;5056203;28;20593;-57
2022/12/30 02:28:10;;;;;;;0.67;0.67;;;;;5.30;95852.00;;;;5056182;28;20254;-57
2022/12/30 02:31:01;;;;;;;0.70;0.70;;;;;5.40;95846.00;;;;5055898;28;20187;-57
2022/12/30 02:33:35;;;;;;;0.53;0.53;;;;;5.40;95850.00;;;;5056090;28;20191;-57
2022/12/30 02:36:08;;;;;;;0.60;0.60;;;;;5.50;95853.00;;;;5056225;28;20208;-57
2022/12/30 02:38:45;;;;;;;0.90;0.90;;;;;5.30;95852.00;;;;5055416;28;20189;-56
2022/12/30 02:47:00;;;;;;;0.70;0.70;;;;;5.10;95853.00;;;;5055801;28;20292;-56
2022/12/30 02:49:29;;;;;;;0.50;0.50;;;;;5.00;95851.00;;;;5055765;28;20180;-57
2022/12/30 02:52:15;;;;;;;0.60;0.60;;;;;5.00;95861.00;;;;5055443;28;20194;-57
2022/12/30 02:54:44;;;;;;;5.60;1.23;;;;;5.00;95853.00;;;;5055296;28;20223;-57
2022/12/30 02:57:29;;;;;;;0.80;0.80;;;;;5.00;95856.00;;;;5055283;28;20238;-57
2022/12/30 03:06:07;;;;;;;0.60;0.60;;;;;4.90;95869.00;;;;5055446;28;20191;-57
2022/12/30 03:08:42;;;;;;;0.70;0.70;;;;;4.80;95865.00;;;;5055705;28;20181;-56
2022/12/30 03:11:16;;;;;;;0.60;0.60;;;;;4.90;95878.00;;;;5055293;28;20183;-56
2022/12/30 03:13:56;;;;;;;1.13;1.13;;;;;4.80;95891.00;;;;5055492;28;20211;-57
2022/12/30 03:16:28;;;;;;;1.00;1.00;;;;;4.70;95886.00;;;;5055178;28;20249;-57
2022/12/30 03:19:00;;;;;;;0.60;0.60;;;;;4.70;95896.00;;;;5055509;28;20194;-57
2022/12/30 03:21:29;;;;;;;0.60;0.60;;;;;4.70;95901.00;;;;5055115;28;20197;-57
2022/12/30 03:27:04;;;;;;;0.80;0.80;;;;;4.60;95924.00;;;;5054780;28;20208;-57
2022/12/30 03:29:36;;;;;;;0.87;0.87;;;;;4.60;95915.00;;;;5055025;28;20627;-57
2022/12/30 03:32:05;;;;;;;0.60;0.60;;;;;4.50;95916.00;;;;5054962;28;20542;-57
2022/12/30 03:34:34;;;;;;;0.67;0.67;;;;;4.40;95913.00;;;;5054533;28;20692;-57
2022/12/30 03:37:08;;;;;;;0.60;0.60;;;;;4.10;95909.00;;;;5054689;28;20592;-57
2022/12/30 03:39:40;;;;;;;0.70;0.70;;;;;4.10;95906.00;;;;5055150;28;20207;-57
2022/12/30 03:42:08;;;;;;;0.70;0.70;;;;;4.10;95898.00;;;;5054812;28;20241;-57
2022/12/30 03:44:37;;;;;;;1.13;1.13;;;;;4.10;95907.00;;;;5054409;28;20219;-57
2022/12/30 03:47:04;;;;;;;1.00;1.00;;;;;4.10;95903.00;;;;5054354;28;20193;-57
2022/12/30 03:49:33;;;;;;;0.70;0.70;;;;;4.10;95890.00;;;;5053519;28;20196;-57
2022/12/30 03:52:00;;;;;;;0.97;0.97;;;;;4.00;95882.00;;;;5054525;28;20196;-57
2022/12/30 03:54:28;;;;;;;0.83;0.83;;;;;4.00;95880.00;;;;5054454;28;20209;-57
2022/12/30 03:56:55;;;;;;;0.60;0.60;;;;;4.10;95870.00;;;;5054375;28;20216;-57
2022/12/30 03:59:23;;;;;;;0.80;0.80;;;;;4.10;95865.00;;;;5054380;28;20526;-57
2022/12/30 04:01:50;;;;;;;0.70;0.70;;;;;4.10;95866.00;;;;5054089;28;20270;-57
2022/12/30 04:04:19;;;;;;;0.73;0.73;;;;;4.20;95865.00;;;;5054011;28;20270;-57
2022/12/30 04:06:47;;;;;;;0.93;0.93;;;;;4.10;95866.00;;;;5054524;28;20197;-57
2022/12/30 04:09:15;;;;;;;0.60;0.60;;;;;4.10;95870.00;;;;5053960;28;20196;-56
2022/12/30 04:11:42;;;;;;;0.60;0.60;;;;;4.10;95877.00;;;;5054159;28;20197;-57
2022/12/30 04:14:10;;;;;;;0.67;0.67;;;;;4.10;95875.00;;;;5035857;28;20220;-57
2022/12/30 04:16:38;;;;;;;0.50;0.50;;;;;4.10;95871.00;;;;5053761;28;20266;-57
2022/12/30 04:19:05;;;;;;;0.90;0.90;;;;;4.00;95872.00;;;;5054027;28;20194;-57
2022/12/30 04:21:33;;;;;;;0.73;0.73;;;;;4.00;95865.00;;;;5053716;28;20192;-57
2022/12/30 04:24:01;;;;;;;0.63;0.63;;;;;3.90;95858.00;;;;5053893;28;20552;-57
2022/12/30 04:26:29;;;;;;;0.63;0.63;;;;;3.90;95849.00;;;;5053634;28;20317;-57
2022/12/30 04:28:56;;;;;;;0.90;0.90;;;;;3.90;95846.00;;;;5053582;28;20250;-57
2022/12/30 04:31:24;;;;;;;1.00;1.00;;;;;3.90;95846.00;;;;5035592;28;20655;-57
2022/12/30 04:33:52;;;;;;;0.93;0.93;;;;;3.80;95847.00;;;;5053890;28;20201;-57
2022/12/30 04:36:21;;;;;;;0.50;0.50;;;;;3.80;95842.00;;;;5053356;28;20292;-57
2022/12/30 04:38:49;;;;;;;0.57;0.57;;;;;3.80;95854.00;;;;5053377;28;20671;-57
2022/12/30 04:41:20;;;;;;;0.60;0.60;;;;;3.80;95843.00;;;;5053378;28;20196;-57
2022/12/30 04:43:48;;;;;;;1.00;1.00;;;;;3.80;95837.00;;;;5053631;28;20184;-57
2022/12/30 04:46:15;;;;;;;0.63;0.63;;;;;3.80;95844.00;;;;5053264;28;20724;-57
2022/12/30 04:48:43;;;;;;;0.97;0.97;;;;;3.80;95838.00;;;;5053531;28;20611;-57
2022/12/30 04:51:10;;;;;;;1.00;1.00;;;;;3.70;95846.00;;;;5053225;28;20199;-57
2022/12/30 04:53:38;;;;;;;0.80;0.80;;;;;3.70;95844.00;;;;5053104;28;20664;-57
2022/12/30 04:56:06;;;;;;;0.60;0.60;;;;;3.60;95848.00;;;;5053068;28;20266;-57
2022/12/30 04:58:34;;;;;;;0.63;0.63;;;;;3.60;95867.00;;;;5053161;28;20250;-57
2022/12/30 05:01:02;;;;;;;0.60;0.60;;;;;3.60;95859.00;;;;5053217;28;20218;-57
2022/12/30 05:03:30;;;;;;;0.63;0.63;;;;;3.60;95853.00;;;;5054138;28;20242;-57
2022/12/30 05:05:58;;;;;;;0.60;0.60;;;;;3.60;95854.00;;;;5035114;28;20263;-57
2022/12/30 05:08:25;;;;;;;0.70;0.70;;;;;3.50;95851.00;;;;5054055;28;20547;-57
2022/12/30 05:10:53;;;;;;;0.57;0.57;;;;;3.50;95834.00;;;;5053244;28;20246;-57
2022/12/30 05:13:20;;;;;;;1.13;1.03;;;;;3.40;95856.00;;;;5053697;28;20204;-57
2022/12/30 05:15:49;;;;;;;0.80;0.80;;;;;3.40;95855.00;;;;5053165;28;20582;-57
2022/12/30 05:18:16;;;;;;;0.77;0.77;;;;;3.40;95860.00;;;;5053716;28;20188;-56
2022/12/30 05:20:44;;;;;;;0.60;0.60;;;;;3.30;95867.00;;;;5053898;28;20536;-57
2022/12/30 05:28:37;;;;;;;0.60;0.60;;;;;3.80;95860.00;;;;5052701;28;20760;-56
2022/12/30 05:31:06;;;;;;;0.60;0.60;;;;;3.80;95857.00;;;;5053391;28;20198;-57
2022/12/30 05:33:34;;;;;;;0.60;0.60;;;;;3.90;95860.00;;;;5052697;28;20237;-57
2022/12/30 05:36:01;;;;;;;0.60;0.60;;;;;4.10;95853.00;;;;5052932;28;20710;-56
2022/12/30 05:38:28;;;;;;;0.57;0.57;;;;;4.10;95861.00;;;;5053032;28;20196;-56
2022/12/30 05:40:56;;;;;;;0.57;0.57;;;;;4.00;95862.00;;;;5052687;28;20196;-58
2022/12/30 05:43:23;;;;;;;0.60;0.60;;;;;4.10;95869.00;;;;5052673;28;20258;-57
2022/12/30 05:45:51;;;;;;;0.77;0.77;;;;;4.10;95879.00;;;;5034614;28;20718;-57
2022/12/30 05:48:20;;;;;;;1.03;1.03;;;;;4.10;95879.00;;;;5052641;28;20200;-57
2022/12/30 05:50:49;;;;;;;0.60;0.60;;;;;4.00;95891.00;;;;5053179;28;20202;-56
2022/12/30 05:53:17;;;;;;;0.57;0.57;;;;;3.90;95886.00;;;;5052658;28;20192;-57
2022/12/30 05:55:45;;;;;;;0.60;0.60;;;;;3.80;95886.00;;;;5053304;28;20220;-57
2022/12/30 05:58:13;;;;;;;0.70;0.70;;;;;3.60;95892.00;;;;5052534;28;20219;-58
2022/12/30 06:00:40;;;;;;;0.60;0.60;;;;;3.40;95887.00;;;;5052892;28;20480;-57
2022/12/30 06:03:08;;;;;;;0.63;0.63;;;;;3.40;95890.00;;;;5034714;28;20725;-57
2022/12/30 06:05:36;;;;;;;0.57;0.57;;;;;3.40;95886.00;;;;5052482;28;20215;-58
2022/12/30 06:08:04;;;;;;;0.70;0.70;;;;;3.40;95878.00;;;;5052439;28;20671;-57
2022/12/30 06:10:32;;;;;;;0.60;0.60;;;;;3.60;95876.00;;;;5053018;28;20250;-57
2022/12/30 06:12:59;;;;;;;0.80;0.80;;;;;3.60;95866.00;;;;5054594;28;20196;-57
2022/12/30 06:15:27;;;;;;;0.60;0.60;;;;;3.50;95877.00;;;;5056049;28;20265;-57
2022/12/30 06:17:54;;;;;;;0.80;0.80;;;;;3.60;95873.00;;;;5056319;28;20273;-57
2022/12/30 06:20:21;;;;;;;0.87;0.87;;;;;3.60;95874.00;;;;5037975;28;20204;-57
2022/12/30 06:22:51;;;;;;;7.47;1.10;;;;;3.90;95886.00;;;;5055939;28;20315;-57
2022/12/30 06:25:18;;;;;;;0.70;0.70;;;;;3.80;95882.00;;;;5055974;28;20709;-57
2022/12/30 06:27:45;;;;;;;0.60;0.60;;;;;3.90;95886.00;;;;5055915;28;20195;-57
2022/12/30 06:30:13;;;;;;;0.60;0.60;;;;;3.60;95889.00;;;;5055886;28;20250;-57
2022/12/30 06:32:41;;;;;;;0.60;0.60;;;;;3.40;95883.00;;;;5055771;28;20249;-58
2022/12/30 06:35:09;;;;;;;0.83;0.83;;;;;3.30;95886.00;;;;5055613;28;20265;-57
2022/12/30 06:37:37;;;;;;;0.90;0.90;;;;;3.20;95883.00;;;;5055611;28;20216;-58
2022/12/30 06:40:07;;;;;;;0.60;0.60;;;;;3.20;95872.00;;;;5056222;28;20199;-57
2022/12/30 06:42:35;;;;;;;0.70;0.70;;;;;3.10;95878.00;;;;5056100;28;20196;-57
2022/12/30 06:45:02;;;;;;;0.90;0.90;;;;;3.10;95870.00;;;;5055349;28;20232;-58
2022/12/30 06:47:30;;;;;;;1.13;1.13;;;;;3.00;95880.00;;;;5055436;28;20199;-57
2022/12/30 06:49:58;;;;;;;0.70;0.70;;;;;3.00;95877.00;;;;5037513;28;20774;-57
2022/12/30 06:52:25;;;;;;;1.07;1.07;;;;;2.80;95879.00;;;;5055460;28;20218;-57
2022/12/30 06:54:53;;;;;;;0.70;0.70;;;;;2.50;95887.00;;;;5055342;28;20277;-57
2022/12/30 06:57:21;;;;;;;0.97;0.97;;;;;2.50;95896.00;;;;5055478;28;20216;-57
2022/12/30 06:59:49;;;;;;;1.00;1.00;;;;;2.50;95884.00;;;;5055301;28;20192;-57
2022/12/30 07:02:16;;;;;;;1.23;1.13;;;;;2.30;95881.00;;;;5055276;28;20188;-58
2022/12/30 07:04:44;;;;;;;0.80;0.80;;;;;2.40;95881.00;;;;5055629;28;20281;-57
2022/12/30 07:07:11;;;;;;;0.70;0.70;;;;;2.40;95871.00;;;;5055410;28;20246;-57
2022/12/30 07:09:38;;;;;;;0.63;0.63;;;;;2.40;95871.00;;;;5055309;28;20196;-57
2022/12/30 07:12:06;;;;;;;1.27;1.17;;;;;2.50;95872.00;;;;5054980;28;20196;-57
2022/12/30 07:14:35;;;;;;;1.07;1.07;;;;;2.60;95879.00;;;;5055080;28;20278;-58
2022/12/30 07:17:03;;;;;;;0.80;0.80;;;;;2.60;95872.00;;;;5055221;28;20270;-57
2022/12/30 07:19:30;;;;;;;1.07;1.00;;;;;2.70;95872.00;;;;5054936;28;20194;-57
2022/12/30 07:21:58;;;;;;;0.90;0.90;;;;;2.80;95866.00;;;;5054866;28;20245;-57
2022/12/30 07:24:25;;;;;;;0.60;0.60;;;;;2.80;95867.00;;;;5053602;28;20219;-58
2022/12/30 07:26:53;;;;;;;0.80;0.80;;;;;2.80;95867.00;;;;5054836;28;20203;-57
2022/12/30 07:29:21;;;;;;;0.60;0.60;;;;;3.10;95868.00;;;;5054776;28;20197;-58
2022/12/30 07:31:49;;;;;;;0.60;0.60;;;;;3.00;95857.00;;;;5054708;28;20283;-58
2022/12/30 07:34:17;;;;;;;0.70;0.70;;;;;3.00;95853.00;;;;5054820;28;20223;-58
2022/12/30 07:36:44;;;;;;;0.63;0.63;;;;;3.00;95856.00;;;;5054435;28;20195;-57
2022/12/30 07:39:12;;;;;;;3.00;1.73;;;;;3.00;95862.00;;;;5054826;28;20208;-58
2022/12/30 07:41:39;;;;;;;0.70;0.70;;;;;3.10;95845.00;;;;5054534;28;20207;-58
2022/12/30 07:44:07;;;;;;;0.77;0.77;;;;;3.10;95842.00;;;;5054238;28;20232;-58
2022/12/30 07:46:34;;;;;;;0.80;0.80;;;;;3.20;95852.00;;;;5054449;28;20177;-58
2022/12/30 07:49:03;;;;;;;1.00;1.00;;;;;3.30;95854.00;;;;5054925;28;20275;-58
2022/12/30 07:51:30;;;;;;;1.40;1.03;;;;;3.30;95851.00;;;;5054524;28;20250;-57
2022/12/30 07:53:59;;;;;;;0.80;0.80;;;;;3.40;95857.00;;;;5054415;28;20682;-58
2022/12/30 07:56:26;;;;;;;0.60;0.60;;;;;3.30;95855.00;;;;5055000;28;20529;-57
2022/12/30 07:58:54;;;;;;;0.70;0.70;;;;;3.40;95865.00;;;;5054114;28;20269;-58
2022/12/30 08:01:22;;;;;;;0.80;0.80;;;;;3.30;95860.00;;;;5054156;28;20609;-57
2022/12/30 08:03:50;;;;;;;0.67;0.67;;;;;3.20;95854.00;;;;5054282;28;20656;-58
2022/12/30 08:06:20;;;;;;;0.90;0.90;;;;;3.40;95849.00;;;;5054043;28;20652;-58
2022/12/30 08:08:47;;;;;;;1.30;1.20;;;;;3.50;95856.00;;;;5054226;28;20559;-57
2022/12/30 08:11:16;;;;;;;0.60;0.60;;;;;3.70;95845.00;;;;5053966;28;20196;-58
2022/12/30 08:13:45;;;;;;;0.80;0.80;;;;;3.70;95837.00;;;;5053819;28;20282;-58
2022/12/30 08:16:14;;;;;;;0.90;0.90;;;;;3.80;95835.00;;;;5053873;28;20200;-58
2022/12/30 08:18:43;;;;;;;0.70;0.70;;;;;3.80;95833.00;;;;5053773;28;20227;-58
2022/12/30 08:21:12;;;;;;;0.73;0.73;;;;;4.00;95832.00;;;;5053787;28;20659;-58
2022/12/30 08:23:44;;;;;;;0.90;0.90;;;;;4.00;95833.00;;;;5053883;28;20196;-58
2022/12/30 08:26:14;;;;;;;0.63;0.63;;;;;4.10;95822.00;;;;5054262;28;20184;-58
2022/12/30 08:28:41;;;;;;;0.80;0.80;;;;;4.00;95840.00;;;;5053687;28;20215;-59
2022/12/30 08:31:10;;;;;;;1.40;0.80;;;;;4.10;95834.00;;;;5053594;28;20243;-58
2022/12/30 08:33:38;;;;;;;0.90;0.90;;;;;4.20;95826.00;;;;5053505;28;20188;-58
2022/12/30 08:36:08;;;;;;;0.70;0.70;;;;;4.40;95825.00;;;;5053391;28;20192;-58
2022/12/30 08:38:38;;;;;;;0.80;0.80;;;;;4.50;95822.00;;;;5053975;28;20211;-58
2022/12/30 08:41:09;;;;;;;1.10;1.10;;;;;4.50;95825.00;;;;5053423;28;20682;-58
2022/12/30 08:43:37;;;;;;;0.80;0.80;;;;;4.60;95818.00;;;;5053370;28;20184;-58
2022/12/30 08:46:05;;;;;;;1.27;1.17;;;;;4.60;95814.00;;;;5053346;28;20683;-58
2022/12/30 08:48:33;;;;;;;1.00;1.00;;;;;4.90;95811.00;;;;5054122;28;20631;-58
2022/12/30 08:51:01;;;;;;;0.90;0.90;;;;;4.70;95803.00;;;;5053870;28;20203;-58
2022/12/30 08:53:29;;;;;;;0.60;0.60;;;;;4.50;95810.00;;;;5054082;28;20225;-58
2022/12/30 08:56:04;;;;;;;0.70;0.70;;;;;4.70;95815.00;;;;5053162;28;20216;-58
2022/12/30 08:58:33;;;;;;;0.60;0.60;;;;;4.70;95797.00;;;;5053161;28;20203;-58
2022/12/30 09:01:07;;;;;;;3.60;1.47;;;;;4.70;95807.00;;;;5053162;28;20196;-58
2022/12/30 09:03:34;;;;;;;0.70;0.70;;;;;4.90;95798.00;;;;5053123;28;20214;-59
2022/12/30 09:06:02;;;;;;;0.90;0.90;;;;;5.00;95802.00;;;;5053356;28;20188;-61
2022/12/30 09:08:29;;;;;;;0.70;0.70;;;;;5.10;95818.00;;;;5053099;28;20206;-60
2022/12/30 09:10:59;;;;;;;0.80;0.80;;;;;5.00;95810.00;;;;5053293;28;20242;-61
2022/12/30 09:13:26;;;;;;;0.70;0.70;;;;;5.10;95815.00;;;;5053025;28;20199;-58
2022/12/30 09:15:56;;;;;;;0.77;0.77;;;;;5.20;95814.00;;;;5053238;28;20220;-58
2022/12/30 09:18:24;;;;;;;0.87;0.87;;;;;5.10;95810.00;;;;5052966;28;20220;-58
2022/12/30 09:20:51;;;;;;;0.70;0.70;;;;;5.30;95804.00;;;;5053028;28;20194;-58
2022/12/30 09:23:19;;;;;;;0.70;0.70;;;;;5.40;95793.00;;;;5052838;28;20189;-58
2022/12/30 09:25:46;;;;;;;0.57;0.57;;;;;5.40;95790.00;;;;5052810;28;20224;-59
2022/12/30 09:28:14;;;;;;;0.80;0.80;;;;;5.40;95788.00;;;;5052881;28;20239;-58
2022/12/30 09:30:42;;;;;;;2.43;1.37;;;;;5.30;95794.00;;;;5053131;28;20551;-58
2022/12/30 09:33:10;;;;;;;0.60;0.60;;;;;5.40;95801.00;;;;5052869;28;20196;-58
2022/12/30 09:35:38;;;;;;;0.60;0.60;;;;;5.50;95794.00;;;;5034932;28;20704;-58
2022/12/30 09:38:06;;;;;;;1.03;1.03;;;;;5.60;95792.00;;;;5052742;28;20223;-58
2022/12/30 09:40:47;;;;;;;0.60;0.60;;;;;5.60;95799.00;;;;5053109;28;20640;-58
2022/12/30 09:43:22;;;;;;;0.80;0.80;;;;;5.60;95781.00;;;;5052834;28;20213;-58
2022/12/30 09:46:05;;;;;;;0.60;0.60;;;;;5.80;95780.00;;;;5052899;28;20220;-58
2022/12/30 09:48:40;;;;;;;0.70;0.70;;;;;6.00;95772.00;;;;5055746;28;20618;-58
2022/12/30 09:51:11;;;;;;;0.70;0.70;;;;;5.90;95763.00;;;;5056648;28;20627;-58
2022/12/30 09:53:44;;;;;;;0.70;0.70;;;;;5.70;95760.00;;;;5056515;28;20585;-58
2022/12/30 09:56:16;;;;;;;0.90;0.90;;;;;5.90;95759.00;;;;5056588;28;20194;-58
2022/12/30 09:58:45;;;;;;;0.80;0.80;;;;;6.10;95759.00;;;;5056770;28;20207;-58
2022/12/30 10:01:22;;;;;;;0.63;0.63;;;;;6.20;95756.00;;;;5056399;28;20199;-59
2022/12/30 10:03:53;;;;;;;0.60;0.60;;;;;6.20;95762.00;;;;5056381;28;20168;-58
2022/12/30 10:06:27;;;;;;;0.53;0.53;;;;;6.30;95746.00;;;;5056393;28;20215;-58
2022/12/30 10:09:27;;;;;;;0.80;0.80;;;;;6.20;95721.00;;;;5056742;28;20182;-58
2022/12/30 10:12:11;;;;;;;0.73;0.73;;;;;5.90;95732.00;;;;5036041;28;20219;-58
2022/12/30 10:14:49;;;;;;;0.80;0.80;;;;;6.10;95737.00;;;;5056174;28;20207;-58
2022/12/30 10:17:45;;;;;;;0.70;0.70;;;;;5.90;95725.00;;;;5056533;28;20180;-58
2022/12/30 10:20:24;;;;;;;0.70;0.70;;;;;6.10;95722.00;;;;5038177;28;20682;-58
2022/12/30 10:22:57;;;;;;;0.60;0.60;;;;;6.00;95729.00;;;;5056226;28;20184;-58
2022/12/30 10:25:30;;;;;;;0.70;0.70;;;;;6.20;95702.00;;;;5056544;28;20226;-57
2022/12/30 10:27:58;;;;;;;0.70;0.70;;;;;6.20;95700.00;;;;5056490;28;20183;-60
2022/12/30 10:30:35;;;;;;;0.87;0.87;;;;;6.20;95701.00;;;;5055954;28;20192;-59
2022/12/30 10:33:07;;;;;;;0.70;0.70;;;;;6.30;95684.00;;;;5055930;28;20180;-58
2022/12/30 10:35:38;;;;;;;0.80;0.80;;;;;6.60;95703.00;;;;5056090;28;20227;-58
2022/12/30 10:38:11;;;;;;;0.90;0.90;;;;;6.40;95693.00;;;;5056232;28;20204;-58
2022/12/30 10:40:53;;;;;;;0.60;0.60;;;;;6.80;95710.00;;;;5055990;28;20185;-58
2022/12/30 10:43:35;;;;;;;0.50;0.50;;;;;6.90;95676.00;;;;5055861;28;20246;-59
2022/12/30 10:46:23;;;;;;;0.70;0.70;;;;;6.90;95687.00;;;;5055832;28;20204;-58
2022/12/30 10:49:11;;;;;;;0.70;0.70;;;;;7.00;95682.00;;;;5055735;28;20177;-57
2022/12/30 10:51:40;;;;;;;0.80;0.80;;;;;7.00;95684.00;;;;5055573;28;20627;-57
2022/12/30 10:54:10;;;;;;;0.70;0.70;;;;;7.10;95673.00;;;;5055434;28;20208;-58
2022/12/30 10:56:39;;;;;;;1.10;1.10;;;;;7.30;95687.00;;;;5037525;28;20211;-55
2022/12/30 10:59:11;;;;;;;1.20;1.10;;;;;7.50;95694.00;;;;5055027;28;20230;-58
2022/12/30 11:01:40;;;;;;;0.70;0.70;;;;;7.40;95687.00;;;;5055399;28;20230;-58
2022/12/30 11:04:07;;;;;;;1.00;1.00;;;;;7.30;95679.00;;;;5055294;28;20693;-56
2022/12/30 11:06:37;;;;;;;0.80;0.80;;;;;7.80;95670.00;;;;5055168;28;20195;-55
2022/12/30 11:09:22;;;;;;;0.60;0.60;;;;;7.80;95666.00;;;;5055237;28;20237;-56
2022/12/30 11:14:44;;;;;;;0.70;0.70;;;;;7.30;95644.00;;;;5055087;28;20215;-57
2022/12/30 11:17:23;;;;;;;9.67;1.47;;;;;7.60;95638.00;;;;5055337;28;20191;-57
2022/12/30 11:19:53;;;;;;;0.80;0.80;;;;;8.00;95639.00;;;;5055184;28;20208;-56
2022/12/30 11:22:21;;;;;;;0.67;0.67;;;;;7.90;95639.00;;;;5054915;28;20206;-56
2022/12/30 11:25:05;;;;;;;0.70;0.70;;;;;7.30;95638.00;;;;5055062;28;20211;-56
2022/12/30 11:27:42;;;;;;;0.80;0.80;;;;;7.20;95643.00;;;;5055148;28;20259;-57
2022/12/30 11:30:24;;;;;;;2.40;1.10;;;;;7.30;95624.00;;;;5055121;28;20219;-57
2022/12/30 11:32:53;;;;;;;1.00;1.00;;;;;7.80;95629.00;;;;5054975;28;20238;-57
2022/12/30 11:35:34;;;;;;;1.47;1.10;;;;;7.70;95643.00;;;;5054639;28;20737;-58
2022/12/30 11:38:03;;;;;;;0.77;0.77;;;;;7.60;95640.00;;;;5036667;28;20206;-58
2022/12/30 11:40:34;;;;;;;0.80;0.80;;;;;7.40;95634.00;;;;5054573;28;20607;-58
2022/12/30 11:43:23;;;;;;;0.67;0.67;;;;;6.70;95643.00;;;;5054687;28;20631;-58
2022/12/30 11:45:59;;;;;;;0.70;0.70;;;;;6.70;95631.00;;;;5050583;28;20314;-57
2022/12/30 11:48:32;;;;;;;0.70;0.70;;;;;6.80;95628.00;;;;5054799;28;20549;-57
2022/12/30 11:51:02;;;;;;;0.80;0.80;;;;;6.90;95619.00;;;;5054689;28;20550;-57
2022/12/30 11:53:31;;;;;;;0.70;0.70;;;;;6.90;95622.00;;;;5054372;28;20188;-56
2022/12/30 11:56:00;;;;;;;1.00;0.90;;;;;7.00;95619.00;;;;5054522;28;20277;-56
2022/12/30 11:58:32;;;;;;;0.60;0.60;;;;;7.00;95608.00;;;;5054466;28;20288;-56
2022/12/30 12:01:04;;;;;;;0.83;0.83;;;;;7.20;95609.00;;;;5054267;28;20187;-56
2022/12/30 12:03:32;;;;;;;1.87;1.40;;;;;6.90;95616.00;;;;5037157;28;20242;-56
2022/12/30 12:06:09;;;;;;;3.20;1.03;;;;;6.90;95605.00;;;;5036205;28;20199;-56
2022/12/30 12:08:45;;;;;;;0.60;0.60;;;;;7.00;95598.00;;;;5054025;28;20237;-56
2022/12/30 12:11:19;;;;;;;0.90;0.90;;;;;6.90;95581.00;;;;5053601;28;20183;-57
2022/12/30 12:13:56;;;;;;;0.60;0.60;;;;;6.90;95578.00;;;;5053861;28;20188;-56
2022/12/30 12:16:36;;;;;;;0.60;0.60;;;;;7.00;95566.00;;;;5036816;28;20231;-56
2022/12/30 12:19:14;;;;;;;0.80;0.80;;;;;7.00;95561.00;;;;5053947;28;20682;-57
2022/12/30 12:21:43;;;;;;;0.60;0.60;;;;;7.00;95571.00;;;;5053931;28;20184;-56
2022/12/30 12:24:19;;;;;;;0.67;0.67;;;;;7.10;95563.00;;;;5054542;28;20686;-56
2022/12/30 12:26:55;;;;;;;0.60;0.60;;;;;7.00;95573.00;;;;5053889;28;20267;-56
2022/12/30 12:29:23;;;;;;;0.60;0.60;;;;;7.10;95577.00;;;;5053990;28;20187;-56
2022/12/30 12:32:30;;;;;;;0.87;0.87;;;;;7.10;95576.00;;;;5054436;28;20253;-56
2022/12/30 12:35:07;;;;;;;1.47;1.33;;;;;7.10;95563.00;;;;5032962;28;20228;-56
2022/12/30 12:37:48;;;;;;;0.60;0.60;;;;;7.10;95573.00;;;;5054158;28;20183;-57
2022/12/30 12:40:40;;;;;;;0.83;0.80;;;;;7.20;95562.00;;;;5053800;28;20200;-58
2022/12/30 12:43:17;;;;;;;0.50;0.50;;;;;7.40;95562.00;;;;5043507;28;20215;-58
2022/12/30 12:46:03;;;;;;;0.80;0.80;;;;;7.10;95556.00;;;;5053239;28;20574;-58
2022/12/30 12:48:48;;;;;;;0.90;0.90;;;;;7.20;95556.00;;;;5053772;28;20213;-58
2022/12/30 12:51:37;;;;;;;0.70;0.70;;;;;7.40;95534.00;;;;5053405;28;20195;-58
2022/12/30 12:54:23;;;;;;;1.00;1.00;;;;;7.50;95532.00;;;;5053829;28;20224;-58
2022/12/30 12:57:11;;;;;;;0.83;0.83;;;;;7.60;95528.00;;;;5053532;28;20195;-58
2022/12/30 13:00:08;;;;;;;0.50;0.50;;;;;7.60;95511.00;;;;5053228;28;20210;-58
2022/12/30 13:03:05;;;;;;;0.67;0.67;;;;;7.60;95510.00;;;;5053509;28;20183;-57
2022/12/30 13:05:38;;;;;;;0.63;0.63;;;;;7.60;95490.00;;;;5053171;28;20212;-58
2022/12/30 13:08:18;;;;;;;0.63;0.63;;;;;7.50;95491.00;;;;5053527;28;20207;-58
2022/12/30 13:10:51;;;;;;;0.80;0.80;;;;;7.50;95487.00;;;;5053382;28;20191;-58
2022/12/30 13:13:26;;;;;;;0.60;0.60;;;;;7.40;95487.00;;;;5053930;28;20543;-57
2022/12/30 13:15:57;;;;;;;0.60;0.60;;;;;7.40;95467.00;;;;5053631;28;20242;-57
2022/12/30 13:18:28;;;;;;;0.90;0.90;;;;;7.40;95470.00;;;;5053021;28;20176;-58
2022/12/30 13:20:59;;;;;;;0.60;0.60;;;;;7.20;95480.00;;;;5053547;28;20181;-58
2022/12/30 13:23:31;;;;;;;0.73;0.73;;;;;7.40;95467.00;;;;5040189;28;20188;-58
2022/12/30 13:26:00;;;;;;;0.60;0.60;;;;;7.20;95468.00;;;;5057137;28;20227;-58
2022/12/30 13:28:30;;;;;;;0.70;0.70;;;;;7.30;95477.00;;;;5057138;28;20187;-57
2022/12/30 13:31:13;;;;;;;0.67;0.67;;;;;7.30;95469.00;;;;5057161;28;20198;-58
2022/12/30 13:33:52;;;;;;;0.77;0.77;;;;;7.40;95477.00;;;;5057017;28;20184;-58
2022/12/30 13:36:27;;;;;;;0.60;0.60;;;;;7.40;95465.00;;;;5057225;28;20226;-58
2022/12/30 13:39:04;;;;;;;0.60;0.60;;;;;7.40;95469.00;;;;5057196;28;20658;-58
2022/12/30 13:41:49;;;;;;;0.80;0.80;;;;;7.50;95477.00;;;;5056985;28;20175;-58
2022/12/30 13:44:19;;;;;;;0.90;0.90;;;;;7.40;95459.00;;;;5056682;28;20219;-58